Time;durP1;ratioP1;P1;durP2;ratioP2;P2;SDS_P1;SDS_P2;PMS_P1;PMS_P2;Temp;Humidity;BMP_temperature;BMP_pressure;BME280_temperature;BME280_humidity;BME280_pressure;Samples;Min_cycle;Max_cycle;Signal;HPM_P1;HPM_P2
2022/01/06 00:01:05;;;;;;;;;0.00;0.00;;;;;4.46;87.86;99533.03;5093581;28;8935;-57
2022/01/06 00:03:34;;;;;;;;;1.00;0.00;;;;;4.45;87.55;99533.13;5094419;28;8861;-57
2022/01/06 00:06:05;;;;;;;;;0.00;0.00;;;;;4.41;88.01;99542.16;5093157;28;8936;-57
2022/01/06 00:08:34;;;;;;;;;0.00;0.00;;;;;4.38;87.77;99542.34;5093967;28;9556;-57
2022/01/06 00:11:01;;;;;;;;;0.00;0.00;;;;;4.32;87.96;99542.69;5094067;28;8920;-57
2022/01/06 00:13:34;;;;;;;;;0.00;0.00;;;;;4.28;87.60;99541.22;5093797;28;8869;-56
2022/01/06 00:16:14;;;;;;;;;1.40;0.00;;;;;4.22;88.10;99541.56;5094282;28;8860;-56
2022/01/06 00:24:21;;;;;;;;;0.00;0.00;;;;;4.18;88.21;99566.44;5093385;28;9012;-56
2022/01/06 00:26:49;;;;;;;;;0.00;0.00;;;;;4.21;88.30;99563.59;5092913;28;8858;-57
2022/01/06 00:29:17;;;;;;;;;1.20;0.20;;;;;4.24;88.50;99560.78;5093144;28;8833;-57
2022/01/06 00:31:44;;;;;;;;;0.20;0.00;;;;;4.25;87.68;99557.22;5092938;28;9024;-57
2022/01/06 00:34:12;;;;;;;;;0.20;0.20;;;;;4.22;88.09;99568.78;5092775;28;8931;-56
2022/01/06 00:36:40;;;;;;;;;0.00;0.00;;;;;4.16;88.38;99568.28;5092828;28;8850;-57
2022/01/06 00:39:08;;;;;;;;;0.00;0.00;;;;;4.10;87.73;99573.94;5093767;28;8931;-57
2022/01/06 00:41:36;;;;;;;;;0.00;0.00;;;;;4.07;88.44;99569.69;5091729;28;8884;-56
2022/01/06 00:44:04;;;;;;;;;0.00;0.00;;;;;4.12;87.95;99574.69;5093057;28;8904;-56
2022/01/06 00:46:32;;;;;;;;;0.00;0.00;;;;;4.17;88.41;99568.19;5093045;28;8842;-57
2022/01/06 00:49:00;;;;;;;;;0.20;0.00;;;;;4.21;88.25;99567.09;5092369;28;8830;-57
2022/01/06 00:51:27;;;;;;;;;0.00;0.00;;;;;4.27;88.05;99576.41;5091616;28;8876;-56
2022/01/06 00:53:56;;;;;;;;;0.40;0.00;;;;;4.30;87.45;99581.50;5092217;28;8891;-57
2022/01/06 00:56:24;;;;;;;;;0.00;0.00;;;;;4.31;87.43;99584.03;5091878;28;8850;-57
2022/01/06 00:58:51;;;;;;;;;0.00;0.00;;;;;4.32;87.71;99585.72;5092499;28;8842;-57
2022/01/06 01:01:19;;;;;;;;;3.00;1.00;;;;;4.31;87.77;99591.09;5092851;28;9512;-57
2022/01/06 01:03:47;;;;;;;;;0.00;0.00;;;;;4.25;87.41;99583.56;5092559;28;8869;-56
2022/01/06 01:06:15;;;;;;;;;0.00;0.00;;;;;4.20;87.49;99588.25;5092523;28;8860;-57
2022/01/06 01:08:43;;;;;;;;;0.00;0.00;;;;;4.18;87.58;99595.41;5091680;28;8884;-56
2022/01/06 01:11:11;;;;;;;;;1.00;1.00;;;;;4.20;88.05;99590.88;5091944;28;8969;-56
2022/01/06 01:13:54;;;;;;;;;0.00;0.00;;;;;4.22;88.05;99595.13;5092343;28;8843;-56
2022/01/06 01:16:25;;;;;;;;;1.40;0.40;;;;;4.24;87.77;99597.66;5091378;28;8830;-56
2022/01/06 01:18:55;;;;;;;;;0.00;0.00;;;;;4.23;87.16;99603.88;5092503;28;8845;-56
2022/01/06 01:21:26;;;;;;;;;0.00;0.00;;;;;4.18;87.31;99603.31;5091450;28;8846;-57
2022/01/06 01:23:54;;;;;;;;;0.80;0.80;;;;;4.15;87.79;99614.00;5093423;28;8980;-56
2022/01/06 01:26:22;;;;;;;;;0.80;0.80;;;;;4.14;87.63;99601.78;5091509;28;8834;-56
2022/01/06 01:28:51;;;;;;;;;0.40;0.00;;;;;4.16;87.60;99607.81;5092621;28;8868;-56
2022/01/06 01:31:28;;;;;;;;;0.00;0.00;;;;;4.17;87.80;99601.59;5092480;28;8846;-56
2022/01/06 01:33:59;;;;;;;;;0.00;0.00;;;;;4.17;87.46;99607.72;5092049;28;8860;-56
2022/01/06 01:36:27;;;;;;;;;1.00;1.00;;;;;4.21;87.48;99616.28;5091968;28;9650;-57
2022/01/06 01:38:55;;;;;;;;;2.40;1.40;;;;;4.19;87.86;99618.19;5091487;28;8866;-57
2022/01/06 01:41:23;;;;;;;;;1.00;1.00;;;;;4.17;87.88;99620.03;5091129;28;8957;-56
2022/01/06 01:43:53;;;;;;;;;0.00;0.00;;;;;4.17;87.34;99618.25;5092704;28;8850;-56
2022/01/06 01:46:28;;;;;;;;;1.80;0.00;;;;;4.20;87.37;99618.06;5092530;28;8830;-55
2022/01/06 01:49:13;;;;;;;;;0.00;0.00;;;;;4.22;87.71;99620.63;5091717;28;8842;-62
2022/01/06 01:51:40;;;;;;;;;3.40;3.40;;;;;4.25;87.76;99621.28;5092731;28;8830;-62
2022/01/06 01:54:08;;;;;;;;;0.40;0.40;;;;;4.27;87.32;99624.66;5091863;28;8830;-62
2022/01/06 01:56:36;;;;;;;;;1.00;0.20;;;;;4.30;87.25;99634.19;5091764;28;8865;-63
2022/01/06 01:59:04;;;;;;;;;0.40;0.00;;;;;4.32;87.64;99638.44;5091122;28;8894;-63
2022/01/06 02:01:31;;;;;;;;;3.40;3.00;;;;;4.32;87.13;99630.53;5092400;28;8838;-63
2022/01/06 02:03:59;;;;;;;;;4.00;1.00;;;;;4.33;87.57;99628.75;5091685;28;8858;-63
2022/01/06 02:06:27;;;;;;;;;0.00;0.00;;;;;4.32;87.14;99633.16;5090557;28;8826;-63
2022/01/06 02:08:55;;;;;;;;;1.00;1.00;;;;;4.31;86.88;99644.66;5092427;28;8901;-63
2022/01/06 02:11:23;;;;;;;;;0.20;0.20;;;;;4.27;86.97;99639.66;5091439;28;8842;-63
2022/01/06 02:13:50;;;;;;;;;0.20;0.00;;;;;4.22;87.03;99632.03;5091705;28;9574;-64
2022/01/06 02:16:19;;;;;;;;;0.00;0.00;;;;;4.21;87.00;99632.09;5092407;28;8846;-63
2022/01/06 02:18:47;;;;;;;;;0.00;0.00;;;;;4.20;87.64;99633.88;5092087;28;8834;-63
2022/01/06 02:21:15;;;;;;;;;1.00;1.00;;;;;4.20;87.53;99644.41;5092037;28;8834;-63
2022/01/06 02:23:43;;;;;;;;;0.00;0.00;;;;;4.20;87.09;99640.94;5091651;28;8860;-63
2022/01/06 02:26:10;;;;;;;;;0.00;0.00;;;;;4.16;87.39;99644.69;5090158;28;8957;-63
2022/01/06 02:28:38;;;;;;;;;0.20;0.20;;;;;4.12;87.20;99644.00;5091183;28;8857;-63
2022/01/06 02:31:06;;;;;;;;;1.00;1.00;;;;;4.07;87.11;99653.13;5091341;28;8852;-63
2022/01/06 02:33:34;;;;;;;;;2.20;0.80;;;;;4.04;87.61;99653.31;5090667;28;8842;-63
2022/01/06 02:36:01;;;;;;;;;0.00;0.00;;;;;3.99;87.70;99656.22;5091211;28;8853;-63
2022/01/06 02:38:29;;;;;;;;;0.40;0.40;;;;;3.99;87.85;99666.75;5091015;28;8866;-63
2022/01/06 02:40:56;;;;;;;;;0.00;0.00;;;;;3.98;87.76;99677.38;5091918;28;8838;-63
2022/01/06 02:43:25;;;;;;;;;0.00;0.00;;;;;3.95;87.27;99674.94;5092540;28;9496;-63
2022/01/06 02:45:53;;;;;;;;;0.60;0.00;;;;;3.89;87.42;99681.38;5092310;28;8844;-63
2022/01/06 02:48:21;;;;;;;;;0.60;0.00;;;;;3.84;87.46;99690.47;5091230;28;8873;-63
2022/01/06 02:50:49;;;;;;;;;0.20;0.20;;;;;3.83;87.59;99697.53;5090868;28;8842;-63
2022/01/06 02:53:16;;;;;;;;;0.00;0.00;;;;;3.86;88.00;99702.63;5090412;28;8849;-63
2022/01/06 02:55:50;;;;;;;;;1.00;1.00;;;;;3.88;87.46;99694.66;5091011;28;8848;-63
2022/01/06 02:58:38;;;;;;;;;0.60;0.60;;;;;3.90;87.12;99690.13;5090848;28;8853;-63
2022/01/06 03:01:06;;;;;;;;;0.80;0.80;;;;;3.90;87.81;99684.88;5090785;28;8931;-63
2022/01/06 03:03:34;;;;;;;;;0.20;0.20;;;;;3.87;87.46;99682.38;5091658;28;8910;-63
2022/01/06 03:06:02;;;;;;;;;2.20;0.20;;;;;3.85;87.78;99685.13;5089540;28;9504;-63
2022/01/06 03:08:29;;;;;;;;;0.00;0.00;;;;;3.84;87.77;99685.22;5091443;28;8862;-63
2022/01/06 03:10:57;;;;;;;;;0.60;0.20;;;;;3.85;87.40;99692.16;5090119;28;8943;-63
2022/01/06 03:13:25;;;;;;;;;0.00;0.00;;;;;3.84;87.74;99693.97;5091077;28;9633;-63
2022/01/06 03:15:53;;;;;;;;;3.60;2.60;;;;;3.82;87.28;99700.25;5094639;28;8825;-63
2022/01/06 03:18:21;;;;;;;;;0.00;0.00;;;;;3.73;87.79;99698.97;5094885;28;8845;-63
2022/01/06 03:20:48;;;;;;;;;0.00;0.00;;;;;3.67;87.78;99706.38;5093850;28;8869;-62
2022/01/06 03:23:16;;;;;;;;;0.00;0.00;;;;;3.66;88.39;99709.94;5094708;28;8882;-62
2022/01/06 03:25:44;;;;;;;;;0.00;0.00;;;;;3.65;88.18;99712.66;5094471;28;9492;-63
2022/01/06 03:28:11;;;;;;;;;1.80;1.40;;;;;3.61;87.79;99711.97;5095008;28;8850;-63
2022/01/06 03:30:39;;;;;;;;;0.00;0.00;;;;;3.57;87.53;99720.13;5094712;28;8849;-63
2022/01/06 03:33:07;;;;;;;;;0.00;0.00;;;;;3.54;87.81;99717.66;5094096;28;8838;-63
2022/01/06 03:35:35;;;;;;;;;0.00;0.00;;;;;3.55;87.97;99728.09;5094236;28;8834;-63
2022/01/06 03:38:03;;;;;;;;;0.00;0.00;;;;;3.57;87.87;99726.22;5094282;28;8871;-63
2022/01/06 03:40:30;;;;;;;;;3.00;3.00;;;;;3.59;87.38;99724.38;5094369;28;8830;-63
2022/01/06 03:42:58;;;;;;;;;1.00;1.00;;;;;3.59;87.57;99726.16;5094359;28;8830;-62
2022/01/06 03:45:26;;;;;;;;;1.00;1.00;;;;;3.60;88.19;99728.69;5094738;28;8996;-64
2022/01/06 03:47:55;;;;;;;;;0.60;0.00;;;;;3.62;87.51;99733.88;5094699;28;8846;-63
2022/01/06 03:50:22;;;;;;;;;2.80;1.00;;;;;3.63;88.13;99741.69;5093583;28;8969;-63
2022/01/06 03:52:50;;;;;;;;;3.00;0.00;;;;;3.63;87.48;99739.06;5094604;28;8956;-63
2022/01/06 03:55:18;;;;;;;;;0.60;0.60;;;;;3.63;87.58;99746.13;5094392;28;8984;-63
2022/01/06 03:57:46;;;;;;;;;0.00;0.00;;;;;3.61;87.93;99754.09;5094168;28;8858;-63
2022/01/06 04:00:13;;;;;;;;;0.60;0.00;;;;;3.60;87.47;99751.53;5094646;28;8838;-63
2022/01/06 04:02:41;;;;;;;;;1.00;0.00;;;;;3.57;87.74;99762.25;5094165;28;8837;-63
2022/01/06 04:05:09;;;;;;;;;0.60;0.60;;;;;3.52;88.00;99757.22;5092998;28;8860;-63
2022/01/06 04:07:37;;;;;;;;;3.20;2.20;;;;;3.51;88.29;99762.56;5094556;28;8880;-63
2022/01/06 04:10:04;;;;;;;;;0.20;0.20;;;;;3.50;87.86;99771.41;5093316;28;8869;-63
2022/01/06 04:12:34;;;;;;;;;1.00;1.00;;;;;3.50;87.89;99763.50;5094264;28;8861;-63
2022/01/06 04:15:02;;;;;;;;;0.40;0.40;;;;;3.49;87.77;99765.25;5093665;28;8977;-63
2022/01/06 04:17:30;;;;;;;;;1.00;0.00;;;;;3.49;88.10;99764.44;5093956;28;8863;-63
2022/01/06 04:19:57;;;;;;;;;0.80;0.60;;;;;3.47;87.34;99768.94;5093253;28;9476;-63
2022/01/06 04:22:25;;;;;;;;;0.00;0.00;;;;;3.46;88.02;99770.72;5091496;28;8960;-63
2022/01/06 04:24:53;;;;;;;;;0.00;0.00;;;;;3.49;87.68;99773.16;5094308;28;8961;-63
2022/01/06 04:27:21;;;;;;;;;0.00;0.00;;;;;3.53;87.99;99774.72;5092625;28;8850;-63
2022/01/06 04:29:49;;;;;;;;;0.00;0.00;;;;;3.58;87.75;99782.34;5093013;28;8854;-63
2022/01/06 04:32:16;;;;;;;;;1.00;1.00;;;;;3.59;87.35;99791.94;5093114;28;9535;-63
2022/01/06 04:34:44;;;;;;;;;1.00;1.00;;;;;3.56;87.91;99792.97;5092557;28;8842;-63
2022/01/06 04:37:12;;;;;;;;;0.40;0.40;;;;;3.58;86.91;99799.00;5092847;28;8846;-63
2022/01/06 04:39:40;;;;;;;;;1.00;1.00;;;;;3.59;87.85;99800.72;5092818;28;8852;-63
2022/01/06 04:42:07;;;;;;;;;0.00;0.00;;;;;3.60;87.94;99801.53;5092605;28;8858;-63
2022/01/06 04:44:35;;;;;;;;;0.60;0.60;;;;;3.55;87.29;99806.22;5092342;28;8876;-63
2022/01/06 04:47:04;;;;;;;;;0.00;0.00;;;;;3.45;87.41;99800.59;5092317;28;8838;-62
2022/01/06 04:49:31;;;;;;;;;4.00;4.00;;;;;3.38;87.32;99801.84;5092939;28;8842;-63
2022/01/06 04:52:00;;;;;;;;;1.00;1.00;;;;;3.31;87.49;99800.47;5091732;28;8834;-64
2022/01/06 04:54:29;;;;;;;;;0.60;0.00;;;;;3.24;87.47;99806.97;5092885;28;8992;-63
2022/01/06 04:56:56;;;;;;;;;0.40;0.40;;;;;3.18;87.62;99812.56;5092820;28;8834;-63
2022/01/06 04:59:24;;;;;;;;;1.40;1.00;;;;;3.13;87.96;99811.09;5092437;28;8856;-63
2022/01/06 05:01:51;;;;;;;;;0.00;0.00;;;;;3.10;87.81;99816.53;5091471;28;8872;-63
2022/01/06 05:04:20;;;;;;;;;0.20;0.20;;;;;3.07;88.31;99835.94;5092986;28;8841;-63
2022/01/06 05:06:47;;;;;;;;;1.00;0.40;;;;;3.06;88.19;99839.50;5091763;28;8856;-63
2022/01/06 05:09:15;;;;;;;;;4.00;1.00;;;;;3.04;88.45;99838.72;5092732;28;8870;-63
2022/01/06 05:11:43;;;;;;;;;1.00;1.00;;;;;3.02;88.11;99840.56;5093213;28;8849;-63
2022/01/06 05:14:11;;;;;;;;;1.00;1.00;;;;;3.00;87.73;99839.81;5092819;28;8947;-63
2022/01/06 05:16:39;;;;;;;;;1.00;0.80;;;;;2.98;88.34;99833.78;5092921;28;8914;-63
2022/01/06 05:19:06;;;;;;;;;1.40;1.40;;;;;2.97;87.90;99839.13;5091842;28;8969;-63
2022/01/06 05:21:34;;;;;;;;;1.40;1.00;;;;;2.94;88.44;99841.91;5092373;28;8933;-63
2022/01/06 05:24:09;;;;;;;;;1.00;1.00;;;;;2.90;88.24;99842.97;5091345;28;8842;-63
2022/01/06 05:26:38;;;;;;;;;0.00;0.00;;;;;2.86;88.10;99842.28;5092793;28;8858;-63
2022/01/06 05:29:06;;;;;;;;;2.20;1.40;;;;;2.82;88.48;99846.00;5092684;28;8841;-63
2022/01/06 05:31:33;;;;;;;;;0.20;0.00;;;;;2.78;88.02;99849.69;5092237;28;8894;-63
2022/01/06 05:34:01;;;;;;;;;0.80;0.80;;;;;2.77;88.94;99850.63;5092122;28;8857;-63
2022/01/06 05:36:29;;;;;;;;;0.20;0.20;;;;;2.76;88.32;99851.56;5091229;28;8856;-63
2022/01/06 05:38:57;;;;;;;;;0.80;0.80;;;;;2.76;88.79;99861.22;5091161;28;9040;-63
2022/01/06 05:41:24;;;;;;;;;2.20;1.00;;;;;2.74;88.03;99860.44;5090814;28;8854;-63
2022/01/06 05:43:52;;;;;;;;;1.40;1.40;;;;;2.70;88.75;99859.75;5091813;28;8826;-63
2022/01/06 05:46:20;;;;;;;;;1.80;1.80;;;;;2.66;88.14;99863.44;5091822;28;8877;-63
2022/01/06 05:48:48;;;;;;;;;0.60;0.60;;;;;2.63;88.13;99870.63;5091109;28;8845;-63
2022/01/06 05:51:16;;;;;;;;;3.00;3.00;;;;;2.59;88.22;99880.41;5090706;28;8838;-63
2022/01/06 05:53:44;;;;;;;;;3.00;3.00;;;;;2.57;88.33;99881.44;5090305;28;8846;-63
2022/01/06 05:56:12;;;;;;;;;3.00;1.80;;;;;2.55;88.44;99886.78;5091671;28;8868;-63
2022/01/06 05:58:40;;;;;;;;;0.80;0.80;;;;;2.52;88.87;99879.03;5089734;28;8834;-63
2022/01/06 06:01:08;;;;;;;;;1.40;1.40;;;;;2.53;88.96;99891.25;5090426;28;8850;-63
2022/01/06 06:03:36;;;;;;;;;2.60;2.60;;;;;2.56;88.47;99891.09;5089876;28;8845;-63
2022/01/06 06:06:04;;;;;;;;;0.60;0.60;;;;;2.58;88.83;99899.75;5089913;28;8854;-63
2022/01/06 06:08:32;;;;;;;;;0.00;0.00;;;;;2.59;88.38;99903.25;5089558;28;8869;-63
2022/01/06 06:11:00;;;;;;;;;2.80;1.80;;;;;2.57;88.77;99902.47;5091475;28;8881;-63
2022/01/06 06:13:27;;;;;;;;;0.80;0.80;;;;;2.58;88.37;99909.44;5089390;28;8884;-63
2022/01/06 06:15:55;;;;;;;;;0.20;0.20;;;;;2.56;88.61;99912.13;5089406;28;8865;-63
2022/01/06 06:18:23;;;;;;;;;3.40;2.80;;;;;2.54;88.43;99913.97;5090153;28;8833;-63
2022/01/06 06:20:51;;;;;;;;;1.00;1.00;;;;;2.51;88.56;99916.72;5088565;28;8951;-63
2022/01/06 06:23:18;;;;;;;;;0.80;0.00;;;;;2.49;88.35;99920.38;5089058;28;8830;-63
2022/01/06 06:25:46;;;;;;;;;1.60;1.40;;;;;2.45;88.76;99919.69;5089044;28;8845;-63
2022/01/06 06:28:14;;;;;;;;;1.00;1.00;;;;;2.44;88.51;99927.63;5086946;28;8968;-63
2022/01/06 06:30:42;;;;;;;;;0.80;0.80;;;;;2.42;88.60;99919.81;5088258;28;8857;-63
2022/01/06 06:33:09;;;;;;;;;0.20;0.20;;;;;2.41;88.35;99923.34;5088444;28;8858;-64
2022/01/06 06:35:40;;;;;;;;;1.80;1.60;;;;;2.43;88.58;99926.75;5087230;28;8848;-63
2022/01/06 06:38:08;;;;;;;;;0.20;0.00;;;;;2.46;88.89;99926.63;5088538;28;9210;-63
2022/01/06 06:40:36;;;;;;;;;0.80;0.80;;;;;2.50;88.80;99933.44;5107088;28;8835;-63
2022/01/06 06:43:03;;;;;;;;;1.00;1.00;;;;;2.55;88.59;99933.19;5088101;28;8933;-63
2022/01/06 06:45:32;;;;;;;;;1.00;1.00;;;;;2.59;88.83;99932.97;5086144;28;8853;-63
2022/01/06 06:48:00;;;;;;;;;2.60;2.60;;;;;2.64;88.55;99944.13;5086790;28;8857;-63
2022/01/06 06:50:27;;;;;;;;;1.40;0.80;;;;;2.68;88.43;99943.09;5087880;28;8911;-63
2022/01/06 06:52:55;;;;;;;;;1.00;0.60;;;;;2.71;88.48;99942.94;5090146;28;8873;-63
2022/01/06 06:55:23;;;;;;;;;4.40;3.00;;;;;2.73;88.23;99935.81;5090172;28;8958;-63
2022/01/06 06:57:51;;;;;;;;;0.60;0.60;;;;;2.73;88.06;99951.59;5090054;28;8846;-63
2022/01/06 07:00:18;;;;;;;;;3.40;2.20;;;;;2.74;88.37;99957.69;5089626;28;8944;-63
2022/01/06 07:02:46;;;;;;;;;2.20;1.00;;;;;2.72;87.64;99960.41;5087719;28;8857;-63
2022/01/06 07:05:18;;;;;;;;;0.00;0.00;;;;;2.69;88.06;99954.44;5088731;28;8850;-63
2022/01/06 07:07:46;;;;;;;;;2.60;1.00;;;;;2.65;87.73;99966.03;5087212;28;9028;-64
2022/01/06 07:10:14;;;;;;;;;0.60;0.00;;;;;2.59;87.95;99969.78;5091385;28;9484;-64
2022/01/06 07:12:41;;;;;;;;;4.00;3.00;;;;;2.55;88.32;99978.75;5088045;28;8961;-63
2022/01/06 07:15:10;;;;;;;;;0.00;0.00;;;;;2.52;88.48;99984.16;5075622;28;8861;-63
2022/01/06 07:17:38;;;;;;;;;0.00;0.00;;;;;2.50;88.27;99983.34;5083360;28;10033;-63
2022/01/06 07:20:05;;;;;;;;;1.60;1.60;;;;;2.51;88.69;99987.69;5087535;28;8870;-63
2022/01/06 07:22:33;;;;;;;;;3.20;3.00;;;;;2.55;88.20;99999.75;5088792;28;8853;-63
2022/01/06 07:25:02;;;;;;;;;6.00;4.80;;;;;2.61;88.41;100012.63;5089783;28;8864;-64
2022/01/06 07:27:30;;;;;;;;;3.40;3.00;;;;;2.68;88.17;100005.31;5089046;28;8853;-63
2022/01/06 07:29:58;;;;;;;;;3.00;2.60;;;;;2.74;87.76;100011.09;5088455;28;8868;-63
2022/01/06 07:32:26;;;;;;;;;1.00;1.00;;;;;2.78;88.31;100017.94;5088625;28;8868;-63
2022/01/06 07:34:56;;;;;;;;;0.00;0.00;;;;;2.82;88.26;100019.53;5088027;28;8858;-63
2022/01/06 07:37:24;;;;;;;;;3.00;2.20;;;;;2.84;87.91;100022.06;5089027;28;8898;-63
2022/01/06 07:39:52;;;;;;;;;1.40;1.40;;;;;2.86;87.62;100026.31;5088425;28;8997;-63
2022/01/06 07:42:20;;;;;;;;;1.00;1.00;;;;;2.87;88.23;100038.53;5088216;28;8877;-64
2022/01/06 07:44:49;;;;;;;;;3.20;3.20;;;;;2.86;87.58;100031.56;5088023;28;8980;-63
2022/01/06 07:47:18;;;;;;;;;4.00;4.00;;;;;2.85;87.99;100032.50;5088232;28;8866;-63
2022/01/06 07:49:46;;;;;;;;;4.80;4.80;;;;;2.85;87.58;100040.41;5086583;28;8858;-63
2022/01/06 07:52:13;;;;;;;;;3.40;3.00;;;;;2.82;87.86;100045.81;5086744;28;8915;-64
2022/01/06 07:54:42;;;;;;;;;3.80;3.00;;;;;2.78;87.69;100062.63;5087386;28;8860;-63
2022/01/06 07:57:10;;;;;;;;;6.00;4.80;;;;;2.74;87.87;100053.16;5087662;28;9557;-63
2022/01/06 07:59:37;;;;;;;;;1.40;1.40;;;;;2.71;87.63;100061.22;5088190;28;8934;-64
2022/01/06 08:02:05;;;;;;;;;8.60;2.60;;;;;2.68;88.01;100064.00;5087194;28;8846;-63
2022/01/06 08:04:33;;;;;;;;;1.00;1.00;;;;;2.67;87.63;100077.19;5086945;28;8834;-63
2022/01/06 08:07:01;;;;;;;;;1.40;1.40;;;;;2.66;87.96;100068.44;5085138;28;8849;-64
2022/01/06 08:09:29;;;;;;;;;3.00;3.00;;;;;2.71;87.98;100068.22;5085997;28;8861;-63
2022/01/06 08:11:57;;;;;;;;;3.00;1.40;;;;;2.77;88.32;100075.84;5083783;28;8897;-63
2022/01/06 08:14:24;;;;;;;;;1.40;1.00;;;;;2.82;88.18;100072.09;5084968;28;8846;-63
2022/01/06 08:16:52;;;;;;;;;3.40;3.40;;;;;2.86;88.00;100076.28;5086906;28;8919;-63
2022/01/06 08:19:20;;;;;;;;;1.00;1.00;;;;;2.88;88.07;100082.31;5085951;28;8849;-63
2022/01/06 08:21:48;;;;;;;;;3.00;1.00;;;;;2.88;87.44;100081.47;5084549;28;8826;-63
2022/01/06 08:24:16;;;;;;;;;2.80;2.20;;;;;2.86;87.54;100086.78;5084740;28;8887;-64
2022/01/06 08:26:44;;;;;;;;;0.00;0.00;;;;;2.84;88.04;100079.91;5082989;28;8892;-64
2022/01/06 08:29:11;;;;;;;;;1.40;1.40;;;;;2.81;87.69;100086.13;5087279;28;8858;-63
2022/01/06 08:31:39;;;;;;;;;2.60;2.60;;;;;2.77;87.63;100087.22;5086426;28;8866;-63
2022/01/06 08:34:07;;;;;;;;;1.40;1.40;;;;;2.72;87.88;100089.19;5086392;28;9028;-63
2022/01/06 08:36:35;;;;;;;;;3.00;3.00;;;;;2.68;88.25;100092.91;5084193;28;8961;-63
2022/01/06 08:39:02;;;;;;;;;1.40;1.40;;;;;2.65;88.25;100100.06;5080917;28;8886;-63
2022/01/06 08:41:30;;;;;;;;;0.60;0.60;;;;;2.63;87.92;100107.16;5081564;28;8874;-63
2022/01/06 08:43:58;;;;;;;;;1.00;1.00;;;;;2.65;88.29;100102.69;5080304;28;9007;-63
2022/01/06 08:46:26;;;;;;;;;1.00;1.00;;;;;2.68;88.03;100113.94;5078338;28;8862;-63
2022/01/06 08:48:54;;;;;;;;;3.00;3.00;;;;;2.70;87.73;100111.22;5079877;28;8850;-63
2022/01/06 08:51:23;;;;;;;;;3.80;2.20;;;;;2.72;87.93;100110.22;5078254;28;8834;-63
2022/01/06 08:53:50;;;;;;;;;6.00;4.00;;;;;2.74;87.68;100113.63;5079511;28;8845;-63
2022/01/06 08:56:18;;;;;;;;;4.80;4.00;;;;;2.76;88.47;100118.81;5059363;28;8847;-63
2022/01/06 08:58:46;;;;;;;;;3.00;1.40;;;;;2.78;88.19;100111.72;5061939;28;8970;-63
2022/01/06 09:01:14;;;;;;;;;3.00;3.00;;;;;2.80;87.66;100116.00;5060220;28;8998;-63
2022/01/06 09:03:42;;;;;;;;;3.20;3.20;;;;;2.83;87.75;100115.88;5060155;28;8965;-63
2022/01/06 09:06:09;;;;;;;;;1.40;1.40;;;;;2.87;88.27;100117.41;5061684;28;9676;-63
2022/01/06 09:08:37;;;;;;;;;4.80;4.00;;;;;2.92;87.71;100117.19;5062551;28;8876;-63
2022/01/06 09:11:05;;;;;;;;;6.00;4.00;;;;;2.96;87.68;100127.50;5063755;28;8844;-63
2022/01/06 09:13:33;;;;;;;;;4.00;3.40;;;;;3.00;87.39;100133.47;5076849;28;9764;-63
2022/01/06 09:16:03;;;;;;;;;4.60;3.80;;;;;3.03;87.82;100128.94;5075794;28;8938;-63
2022/01/06 09:18:31;;;;;;;;;3.00;3.00;;;;;3.08;87.78;100136.59;5079679;28;8868;-63
2022/01/06 09:20:59;;;;;;;;;4.00;4.00;;;;;3.12;87.46;100140.81;5080587;28;8842;-63
2022/01/06 09:23:27;;;;;;;;;0.80;0.80;;;;;3.15;87.58;100133.63;5080228;28;8853;-63
2022/01/06 09:25:54;;;;;;;;;3.20;3.00;;;;;3.21;87.70;100150.91;5080274;28;9942;-63
2022/01/06 09:28:22;;;;;;;;;2.60;1.00;;;;;3.24;86.72;100141.09;5081352;28;9957;-63
2022/01/06 09:30:51;;;;;;;;;1.40;1.40;;;;;3.29;86.93;100144.38;5077183;28;8878;-63
2022/01/06 09:33:19;;;;;;;;;4.00;4.00;;;;;3.33;87.14;100138.03;5079350;28;8934;-63
2022/01/06 09:35:47;;;;;;;;;3.00;3.00;;;;;3.39;87.23;100148.25;5076948;28;8865;-63
2022/01/06 09:38:15;;;;;;;;;1.00;1.00;;;;;3.44;87.12;100151.53;5078658;28;8861;-63
2022/01/06 09:40:43;;;;;;;;;3.00;3.00;;;;;3.50;87.20;100153.88;5078392;28;8882;-63
2022/01/06 09:43:12;;;;;;;;;3.40;2.60;;;;;3.56;86.39;100158.00;5077294;28;8905;-63
2022/01/06 09:45:40;;;;;;;;;3.00;3.00;;;;;3.62;86.85;100158.53;5078086;28;8872;-63
2022/01/06 09:48:08;;;;;;;;;4.00;4.00;;;;;3.70;86.64;100160.81;5076491;28;8926;-63
2022/01/06 09:50:36;;;;;;;;;3.00;1.00;;;;;3.76;86.31;100158.75;5077357;28;9468;-63
2022/01/06 09:53:04;;;;;;;;;3.60;3.60;;;;;3.85;86.25;100151.25;5076804;28;8934;-63
2022/01/06 09:55:32;;;;;;;;;0.60;0.20;;;;;3.99;85.99;100161.09;5073334;28;8846;-63
2022/01/06 09:58:00;;;;;;;;;4.40;4.40;;;;;4.22;85.59;100158.16;5079036;28;8846;-63
2022/01/06 10:00:28;;;;;;;;;1.40;1.40;;;;;4.51;84.53;100160.16;5076772;28;9066;-63
2022/01/06 10:02:56;;;;;;;;;5.60;5.60;;;;;4.81;83.84;100155.94;5077494;28;8850;-63
2022/01/06 10:05:24;;;;;;;;;4.00;2.20;;;;;5.16;82.97;100155.75;5079327;28;8845;-63
2022/01/06 10:07:53;;;;;;;;;4.00;3.00;;;;;5.55;81.87;100144.78;5076932;28;8886;-63
2022/01/06 10:10:20;;;;;;;;;6.20;4.40;;;;;6.00;80.92;100142.19;5078479;28;8842;-63
2022/01/06 10:12:49;;;;;;;;;4.00;2.20;;;;;6.48;79.85;100126.06;5079227;28;8872;-63
2022/01/06 10:15:17;;;;;;;;;3.60;3.60;;;;;6.79;79.76;100139.16;5078666;28;8845;-62
2022/01/06 10:17:45;;;;;;;;;3.00;3.00;;;;;7.07;79.72;100137.38;5078651;28;8972;-63
2022/01/06 10:20:13;;;;;;;;;2.60;2.60;;;;;7.50;78.99;100135.50;5079160;28;8853;-63
2022/01/06 10:22:40;;;;;;;;;3.00;3.00;;;;;7.93;78.79;100132.63;5080260;28;8964;-63
2022/01/06 10:25:09;;;;;;;;;2.20;1.40;;;;;8.53;77.88;100125.88;5077662;28;8862;-63
2022/01/06 10:27:39;;;;;;;;;3.80;3.80;;;;;9.13;75.96;100114.47;5080564;28;8846;-63
2022/01/06 10:30:06;;;;;;;;;4.25;4.25;;;;;9.65;75.24;100120.41;5082044;28;8867;-63
2022/01/06 10:32:34;;;;;;;;;4.00;3.25;;;;;9.56;75.38;100114.94;5078555;28;8858;-63
2022/01/06 10:35:03;;;;;;;;;5.50;4.00;;;;;9.25;76.25;100118.94;5077181;28;8862;-63
2022/01/06 10:37:31;;;;;;;;;3.50;3.50;;;;;9.08;77.00;100116.63;5079610;28;8846;-63
2022/01/06 10:39:58;;;;;;;;;5.50;5.00;;;;;9.26;77.50;100123.28;5078099;28;9016;-63
2022/01/06 10:42:26;;;;;;;;;3.00;1.50;;;;;9.77;76.74;100118.66;5077369;28;8869;-63
2022/01/06 10:44:55;;;;;;;;;7.50;4.50;;;;;10.30;75.96;100112.88;5078961;28;8844;-63
2022/01/06 10:47:23;;;;;;;;;3.75;3.75;;;;;10.81;74.58;100104.41;5079952;28;8858;-63
2022/01/06 10:49:50;;;;;;;;;3.00;3.00;;;;;11.31;73.49;100111.91;5079058;28;8852;-63
2022/01/06 10:52:21;;;;;;;;;6.75;6.00;;;;;11.82;72.74;100109.56;5077347;28;8964;-63
2022/01/06 10:54:48;;;;;;;;;4.00;4.00;;;;;12.17;71.86;100103.00;5080809;28;8982;-63
2022/01/06 10:57:16;;;;;;;;;4.00;3.00;;;;;12.23;71.69;100107.84;5081178;28;8850;-63
2022/01/06 10:59:44;;;;;;;;;3.75;3.75;;;;;12.20;72.26;100108.06;5081508;28;8854;-63
2022/01/06 11:02:12;;;;;;;;;3.75;3.75;;;;;12.32;72.22;100102.53;5080520;28;8869;-63
2022/01/06 11:04:40;;;;;;;;;3.00;3.00;;;;;12.34;72.50;100108.63;5080273;28;9313;-62
2022/01/06 11:07:08;;;;;;;;;2.00;1.25;;;;;12.09;73.25;100124.97;5079719;28;8853;-62
2022/01/06 11:09:37;;;;;;;;;4.00;4.00;;;;;11.98;73.59;100118.84;5082757;28;8868;-63
2022/01/06 11:14:51;;;;;;;;;6.50;6.50;;;;;11.91;73.32;100122.97;5081852;28;9619;-63
2022/01/06 11:17:21;;;;;;;;;7.50;6.50;;;;;12.17;72.66;100122.53;5076465;28;8866;-62
2022/01/06 11:19:49;;;;;;;;;5.00;3.75;;;;;12.20;72.92;100114.28;5078172;28;9508;-63
2022/01/06 11:22:17;;;;;;;;;6.00;6.00;;;;;12.19;72.82;100109.06;5079049;28;9623;-63
2022/01/06 11:24:45;;;;;;;;;6.00;5.00;;;;;12.24;72.55;100112.19;5080893;28;8879;-63
2022/01/06 11:27:12;;;;;;;;;4.00;3.00;;;;;12.37;72.53;100115.50;5080654;28;8866;-63
2022/01/06 11:29:41;;;;;;;;;1.00;0.50;;;;;12.30;73.02;100115.19;5082278;28;8838;-62
2022/01/06 11:32:08;;;;;;;;;5.00;4.00;;;;;12.20;72.71;100116.09;5081624;28;8842;-62
2022/01/06 11:34:36;;;;;;;;;8.00;6.00;;;;;12.08;72.63;100119.78;5081420;28;8856;-63
2022/01/06 11:37:05;;;;;;;;;4.00;1.00;;;;;12.14;73.14;100119.25;5085217;28;9515;-62
2022/01/06 11:39:33;;;;;;;;;4.50;4.00;;;;;12.16;72.43;100117.31;5084039;28;8866;-62
2022/01/06 11:42:01;;;;;;;;;6.00;5.50;;;;;12.18;73.17;100123.38;5082687;28;9155;-62
2022/01/06 11:44:30;;;;;;;;;6.50;4.00;;;;;12.24;73.60;100118.38;5084781;28;8830;-62
2022/01/06 11:46:57;;;;;;;;;5.50;5.50;;;;;12.30;73.21;100122.38;5085222;28;8934;-63
2022/01/06 11:49:26;;;;;;;;;3.00;3.00;;;;;12.35;73.38;100125.47;5083601;28;8942;-62
2022/01/06 11:51:55;;;;;;;;;5.50;4.50;;;;;12.21;73.57;100123.09;5084480;28;8874;-62
2022/01/06 11:54:22;;;;;;;;;4.00;3.25;;;;;11.84;74.57;100127.13;5084555;28;8866;-62
2022/01/06 11:56:50;;;;;;;;;8.50;8.50;;;;;11.61;75.03;100122.81;5083081;28;8991;-62
2022/01/06 11:59:18;;;;;;;;;10.50;7.50;;;;;11.48;75.28;100124.75;5083409;28;8849;-62